Time;durP1;ratioP1;P1;durP2;ratioP2;P2;SDS_P1;SDS_P2;PMS_P1;PMS_P2;Temp;Humidity;BMP_temperature;BMP_pressure;BME280_temperature;BME280_humidity;BME280_pressure;Samples;Min_cycle;Max_cycle;Signal;HPM_P1;HPM_P2
2022/03/02 00:01:42;;;;;;;4.40;3.20;;;14.70;54.50;;;;;;5095272;28;20175;-21
2022/03/02 00:04:07;;;;;;;3.87;3.13;;;14.70;54.60;;;;;;5092131;28;20270;-22
2022/03/02 00:06:33;;;;;;;4.30;3.40;;;14.70;54.50;;;;;;5092373;28;20282;-22
2022/03/02 00:08:59;;;;;;;4.30;3.17;;;14.70;54.60;;;;;;5092408;28;20574;-20
2022/03/02 00:11:27;;;;;;;3.67;3.20;;;14.70;54.60;;;;;;5092927;28;20217;-20
2022/03/02 00:13:53;;;;;;;4.40;3.00;;;14.70;54.60;;;;;;5094672;28;20176;-20
2022/03/02 00:16:19;;;;;;;3.60;2.70;;;14.70;54.60;;;;;;5094454;28;20173;-18
2022/03/02 00:18:45;;;;;;;3.83;2.77;;;14.70;54.60;;;;;;5093776;28;20167;-21
2022/03/02 00:21:11;;;;;;;2.97;2.60;;;14.70;54.70;;;;;;5094086;28;20175;-20
2022/03/02 00:23:37;;;;;;;3.53;2.97;;;14.70;54.60;;;;;;5092655;28;20193;-20
2022/03/02 00:26:03;;;;;;;3.90;3.00;;;14.70;54.60;;;;;;5093846;28;20637;-22
2022/03/02 00:28:28;;;;;;;3.40;2.97;;;14.70;54.60;;;;;;5094203;28;20197;-22
2022/03/02 00:30:55;;;;;;;3.67;2.77;;;14.70;54.60;;;;;;5093672;28;20681;-21
2022/03/02 00:33:21;;;;;;;4.23;3.10;;;14.70;54.60;;;;;;5094359;28;20211;-21
2022/03/02 00:35:47;;;;;;;3.87;3.00;;;14.60;54.60;;;;;;5095593;28;20171;-20
2022/03/02 00:38:13;;;;;;;3.17;2.70;;;14.60;54.60;;;;;;5094252;28;20189;-20
2022/03/02 00:40:41;;;;;;;3.60;2.90;;;14.60;54.60;;;;;;5093756;28;20178;-22
2022/03/02 00:43:07;;;;;;;4.13;3.30;;;14.60;54.60;;;;;;5094125;28;20471;-21
2022/03/02 00:45:34;;;;;;;3.17;2.70;;;14.60;54.60;;;;;;5095200;28;20178;-22
2022/03/02 00:48:01;;;;;;;3.00;2.60;;;14.60;54.60;;;;;;5093833;28;20473;-22
2022/03/02 00:50:27;;;;;;;3.00;2.70;;;14.60;54.60;;;;;;5096141;28;20202;-19
2022/03/02 00:52:54;;;;;;;3.37;2.70;;;14.60;54.60;;;;;;5097419;28;20296;-23
2022/03/02 00:55:20;;;;;;;2.70;2.50;;;14.60;54.60;;;;;;5096680;28;20463;-21
2022/03/02 00:57:46;;;;;;;3.23;2.47;;;14.60;54.60;;;;;;5097643;28;20179;-21
2022/03/02 01:00:12;;;;;;;2.63;2.33;;;14.60;54.60;;;;;;5097727;28;20179;-25
2022/03/02 01:02:39;;;;;;;4.30;2.90;;;14.60;54.60;;;;;;5099056;28;20254;-19
2022/03/02 01:05:06;;;;;;;3.53;2.73;;;14.60;54.60;;;;;;5097790;28;20179;-18
2022/03/02 01:07:32;;;;;;;3.17;2.73;;;14.60;54.70;;;;;;5098468;28;20182;-17
2022/03/02 01:09:58;;;;;;;4.73;2.77;;;14.50;54.60;;;;;;5096795;28;20282;-20
2022/03/02 01:12:25;;;;;;;3.83;3.00;;;14.50;54.60;;;;;;5095464;28;20206;-19
2022/03/02 01:14:51;;;;;;;3.20;2.77;;;14.50;54.60;;;;;;5093641;28;20185;-20
2022/03/02 01:17:17;;;;;;;3.00;2.70;;;14.50;54.60;;;;;;5093455;28;20201;-23
2022/03/02 01:19:43;;;;;;;3.47;2.90;;;14.50;54.70;;;;;;5096193;28;20606;-22
2022/03/02 01:22:09;;;;;;;3.37;2.80;;;14.50;54.60;;;;;;5096948;28;20215;-18
2022/03/02 01:24:35;;;;;;;3.03;2.73;;;14.50;54.60;;;;;;5095879;28;20190;-21
2022/03/02 01:27:04;;;;;;;3.63;2.80;;;14.50;54.70;;;;;;5097092;28;20338;-20
2022/03/02 01:29:33;;;;;;;3.67;2.70;;;14.50;54.70;;;;;;5096890;28;20555;-20
2022/03/02 01:32:00;;;;;;;2.87;2.57;;;14.50;54.70;;;;;;5098403;28;20299;-22
2022/03/02 01:34:26;;;;;;;3.03;2.73;;;14.40;54.60;;;;;;5096022;28;20425;-21
2022/03/02 01:36:52;;;;;;;3.60;2.70;;;14.40;54.60;;;;;;5095379;28;20182;-21
2022/03/02 01:39:18;;;;;;;3.63;2.90;;;14.40;54.60;;;;;;5095796;28;20173;-17
2022/03/02 01:41:43;;;;;;;3.33;2.47;;;14.40;54.60;;;;;;5096095;28;20551;-18
2022/03/02 01:44:09;;;;;;;2.97;2.57;;;14.40;54.70;;;;;;5097501;28;20263;-19
2022/03/02 01:46:35;;;;;;;3.17;2.67;;;14.40;54.70;;;;;;5097788;28;20586;-22
2022/03/02 01:49:02;;;;;;;2.87;2.37;;;14.40;54.70;;;;;;5097653;28;20178;-21
2022/03/02 01:51:27;;;;;;;3.40;2.77;;;14.40;54.70;;;;;;5120987;22;20233;-79
2022/03/02 01:54:00;;;;;;;3.03;2.60;;;14.40;54.70;;;;;;5115604;28;20449;-80
2022/03/02 01:56:47;;;;;;;3.00;2.70;;;14.40;54.80;;;;;;5099952;28;20270;-79
2022/03/02 01:59:22;;;;;;;2.47;2.27;;;14.40;54.70;;;;;;5098919;28;20182;-79
2022/03/02 02:01:51;;;;;;;3.10;2.60;;;14.30;54.70;;;;;;5117124;28;20169;-79
2022/03/02 02:04:39;;;;;;;2.80;2.30;;;14.30;54.70;;;;;;5098757;28;20185;-79
2022/03/02 02:07:11;;;;;;;2.90;2.57;;;14.30;54.70;;;;;;5099570;28;20182;-79
2022/03/02 02:10:15;;;;;;;3.10;2.57;;;14.30;54.70;;;;;;5116657;28;20261;-80
2022/03/02 02:16:17;;;;;;;3.57;2.63;;;14.30;54.70;;;;;;5007921;28;20250;-79
2022/03/02 02:18:55;;;;;;;2.97;2.40;;;14.30;54.70;;;;;;5018303;28;20190;-79
2022/03/02 02:21:21;;;;;;;3.13;2.50;;;14.30;54.70;;;;;;5096501;28;20352;-79
2022/03/02 02:23:50;;;;;;;3.33;2.50;;;14.30;54.70;;;;;;5100594;28;20166;-79
2022/03/02 02:26:21;;;;;;;2.90;2.40;;;14.30;54.70;;;;;;5097596;28;20255;-79
2022/03/02 02:28:51;;;;;;;2.93;2.60;;;14.20;54.70;;;;;;5099789;28;20273;-79
2022/03/02 02:31:38;;;;;;;3.40;2.80;;;14.30;54.70;;;;;;5100292;28;20194;-79
2022/03/02 02:34:17;;;;;;;3.87;2.90;;;14.20;54.70;;;;;;5098314;28;20410;-79
2022/03/02 02:36:57;;;;;;;3.03;2.73;;;14.20;54.70;;;;;;5097383;28;20547;-79
2022/03/02 02:39:31;;;;;;;3.17;2.50;;;14.20;54.60;;;;;;5098363;28;20200;-78
2022/03/02 02:42:12;;;;;;;2.63;2.40;;;14.20;54.70;;;;;;5098512;28;20206;-79
2022/03/02 02:44:47;;;;;;;2.73;2.53;;;14.20;54.70;;;;;;5099217;28;20175;-79
2022/03/02 02:47:55;;;;;;;3.17;2.60;;;14.20;54.70;;;;;;5099931;28;20454;-79
2022/03/02 02:51:06;;;;;;;2.80;2.50;;;14.20;54.70;;;;;;5071882;28;20303;-78
2022/03/02 02:53:35;;;;;;;2.97;2.60;;;14.20;54.70;;;;;;5105601;28;20341;-79
2022/03/02 02:56:33;;;;;;;2.87;2.50;;;14.20;54.70;;;;;;5116907;28;20178;-79
2022/03/02 02:59:14;;;;;;;3.40;2.63;;;14.20;54.70;;;;;;5094383;28;20205;-79
2022/03/02 03:02:07;;;;;;;2.60;2.40;;;14.10;54.70;;;;;;5117574;28;20250;-79
2022/03/02 03:04:35;;;;;;;2.77;2.40;;;14.20;54.70;;;;;;5100200;28;20178;-79
2022/03/02 03:07:01;;;;;;;2.83;2.50;;;14.10;54.70;;;;;;5099753;28;20273;-79
2022/03/02 03:09:54;;;;;;;2.70;2.40;;;14.10;54.70;;;;;;5099740;28;20283;-79
2022/03/02 03:12:20;;;;;;;2.93;2.63;;;14.10;54.70;;;;;;5097635;28;20206;-79
2022/03/02 03:15:01;;;;;;;2.87;2.37;;;14.10;54.70;;;;;;5100143;28;20174;-79
2022/03/02 03:20:31;;;;;;;3.47;2.60;;;14.10;54.70;;;;;;5116234;28;20177;-79
2022/03/02 03:23:23;;;;;;;2.93;2.43;;;14.10;54.70;;;;;;5093771;28;20194;-79
2022/03/02 03:26:06;;;;;;;3.57;2.40;;;14.10;54.70;;;;;;5102911;28;20281;-79
2022/03/02 03:28:34;;;;;;;2.57;2.37;;;14.10;54.70;;;;;;5098026;28;20277;-79
2022/03/02 03:31:46;;;;;;;3.40;2.43;;;14.00;54.70;;;;;;5099137;28;20292;-79
2022/03/02 03:34:18;;;;;;;2.80;2.40;;;14.00;54.70;;;;;;5098378;28;20260;-79
2022/03/02 03:37:18;;;;;;;2.50;2.27;;;14.10;54.70;;;;;;5097873;28;20178;-78
2022/03/02 03:40:13;;;;;;;3.67;2.70;;;14.00;54.70;;;;;;5099002;28;20169;-79
2022/03/02 03:42:45;;;;;;;2.93;2.43;;;14.00;54.70;;;;;;5099548;28;20177;-79
2022/03/02 03:45:44;;;;;;;2.40;2.20;;;14.00;54.70;;;;;;5098609;28;20182;-79
2022/03/02 03:48:23;;;;;;;2.40;2.20;;;14.00;54.70;;;;;;5006053;28;20192;-79
2022/03/02 03:51:06;;;;;;;2.57;2.37;;;14.00;54.70;;;;;;5014253;28;20522;-79
2022/03/02 03:54:02;;;;;;;2.50;2.10;;;14.00;54.70;;;;;;5071109;28;20199;-78
2022/03/02 03:56:31;;;;;;;2.50;2.20;;;14.00;54.70;;;;;;5057507;28;20205;-78
2022/03/02 03:59:00;;;;;;;2.83;2.50;;;13.90;54.70;;;;;;5056336;28;20279;-79
2022/03/02 04:01:41;;;;;;;2.60;2.40;;;14.00;54.80;;;;;;5057740;28;20178;-79
2022/03/02 04:04:16;;;;;;;3.30;2.50;;;14.00;54.80;;;;;;5056074;28;20198;-79
2022/03/02 04:07:04;;;;;;;2.37;2.17;;;13.90;54.80;;;;;;5055175;28;20194;-79
2022/03/02 04:12:44;;;;;;;2.77;2.40;;;13.90;54.80;;;;;;5076293;28;20248;-79
2022/03/02 04:15:18;;;;;;;3.30;2.40;;;13.90;54.80;;;;;;5059673;28;20466;-79
2022/03/02 04:17:44;;;;;;;2.67;2.40;;;13.90;54.80;;;;;;5058805;28;20178;-79
2022/03/02 04:20:25;;;;;;;2.70;2.50;;;13.90;54.80;;;;;;5064802;28;20309;-79
2022/03/02 04:23:12;;;;;;;3.07;2.47;;;13.90;54.80;;;;;;5016251;28;20258;-79
2022/03/02 04:26:03;;;;;;;3.13;2.53;;;13.90;54.80;;;;;;5021613;28;20183;-79
2022/03/02 04:28:38;;;;;;;3.60;2.47;;;13.90;54.80;;;;;;5036624;28;20179;-79
2022/03/02 04:31:06;;;;;;;2.77;2.23;;;13.80;54.80;;;;;;5036244;28;20300;-79
2022/03/02 04:33:49;;;;;;;3.03;2.27;;;13.80;54.80;;;;;;5036456;28;20270;-79
2022/03/02 04:36:45;;;;;;;2.57;2.37;;;13.80;54.80;;;;;;5036533;28;20474;-79
2022/03/02 04:39:20;;;;;;;2.37;2.17;;;13.80;54.80;;;;;;5035461;28;20179;-79
2022/03/02 04:41:49;;;;;;;2.67;2.33;;;13.80;54.80;;;;;;5036516;28;20186;-78
2022/03/02 04:44:27;;;;;;;3.30;2.60;;;13.80;54.90;;;;;;5019762;28;20199;-79
2022/03/02 04:46:52;;;;;;;3.60;2.60;;;13.80;54.80;;;;;;5034830;28;20198;-79
2022/03/02 04:49:26;;;;;;;3.07;2.40;;;13.80;54.80;;;;;;5031193;28;20200;-78
2022/03/02 04:52:09;;;;;;;2.93;2.40;;;13.80;54.90;;;;;;5040252;28;20242;-78
2022/03/02 04:57:34;;;;;;;2.40;2.20;;;13.70;54.90;;;;;;5098377;28;20186;-79
2022/03/02 05:00:09;;;;;;;2.97;2.40;;;13.70;54.90;;;;;;5080648;28;20539;-79
2022/03/02 05:02:50;;;;;;;2.97;2.53;;;13.70;54.90;;;;;;5079859;28;20182;-79
2022/03/02 05:05:40;;;;;;;2.80;2.43;;;13.70;54.90;;;;;;5079924;28;20438;-79
2022/03/02 05:08:15;;;;;;;2.30;2.10;;;13.70;54.80;;;;;;5079387;28;20285;-79
2022/03/02 05:10:53;;;;;;;3.03;2.43;;;13.70;54.90;;;;;;5080731;28;20212;-79
2022/03/02 05:13:24;;;;;;;2.77;2.40;;;13.70;54.90;;;;;;5080771;28;20177;-79
2022/03/02 05:15:53;;;;;;;2.87;2.13;;;13.70;54.90;;;;;;5079615;28;20186;-79
2022/03/02 05:18:21;;;;;;;3.20;2.20;;;13.70;54.90;;;;;;5080155;28;20316;-79
2022/03/02 05:20:53;;;;;;;3.20;2.33;;;13.70;54.90;;;;;;5080333;28;20208;-79
2022/03/02 05:23:44;;;;;;;2.77;2.47;;;13.70;54.90;;;;;;5080382;28;20390;-80
2022/03/02 05:26:51;;;;;;;3.00;2.43;;;13.70;54.90;;;;;;5079245;28;20196;-79
2022/03/02 05:29:22;;;;;;;2.50;2.30;;;13.70;54.90;;;;;;5095670;28;20175;-78
2022/03/02 05:32:35;;;;;;;2.63;2.40;;;13.60;54.90;;;;;;5095700;28;20229;-79
2022/03/02 05:35:07;;;;;;;2.70;2.40;;;13.60;54.90;;;;;;5098631;28;20471;-78
2022/03/02 05:37:42;;;;;;;2.80;2.50;;;13.60;54.90;;;;;;5099721;28;20180;-79
2022/03/02 05:40:48;;;;;;;2.70;2.27;;;13.60;55.00;;;;;;5097057;28;20534;-79
2022/03/02 05:43:14;;;;;;;2.60;2.40;;;13.60;55.10;;;;;;5095442;28;20484;-79
2022/03/02 05:45:39;;;;;;;2.60;2.40;;;13.60;55.20;;;;;;5095465;28;20186;-79
2022/03/02 05:48:26;;;;;;;2.80;2.50;;;13.60;55.30;;;;;;5095111;28;20532;-78
2022/03/02 05:51:16;;;;;;;4.47;2.63;;;13.60;55.30;;;;;;5094812;28;20478;-79
2022/03/02 05:54:10;;;;;;;2.80;2.53;;;13.60;55.50;;;;;;5089583;28;20193;-79
2022/03/02 05:56:40;;;;;;;3.87;2.77;;;13.60;55.70;;;;;;5117489;28;20236;-79
2022/03/02 05:59:32;;;;;;;3.30;2.70;;;13.60;55.80;;;;;;5101692;28;20246;-79
2022/03/02 06:02:20;;;;;;;3.93;2.60;;;13.60;55.80;;;;;;5094797;28;20183;-79
2022/03/02 06:07:55;;;;;;;3.13;2.40;;;13.60;56.00;;;;;;5100299;28;20213;-79
2022/03/02 06:10:21;;;;;;;4.90;3.20;;;13.60;56.00;;;;;;5097206;28;20205;-78
2022/03/02 06:12:50;;;;;;;3.83;2.90;;;13.60;56.20;;;;;;5113792;28;20180;-79
2022/03/02 06:15:28;;;;;;;4.00;2.97;;;13.60;56.00;;;;;;5095857;28;20559;-79
2022/03/02 06:18:01;;;;;;;4.63;2.87;;;13.60;56.00;;;;;;5094456;28;20181;-79
2022/03/02 06:20:36;;;;;;;5.30;3.10;;;13.60;56.00;;;;;;5096847;28;20565;-79
2022/03/02 06:23:02;;;;;;;5.00;2.63;;;13.60;56.00;;;;;;5101028;28;20191;-79
2022/03/02 06:25:34;;;;;;;3.40;3.10;;;13.60;56.40;;;;;;5124243;27;20623;-79
2022/03/02 06:28:06;;;;;;;5.20;3.13;;;13.60;56.10;;;;;;5100188;28;20181;-79
2022/03/02 06:30:57;;;;;;;6.13;3.20;;;13.60;56.10;;;;;;5098991;28;20726;-79
2022/03/02 06:33:23;;;;;;;3.97;3.17;;;13.60;56.20;;;;;;5100266;28;20172;-78
2022/03/02 06:35:56;;;;;;;4.40;3.00;;;13.60;56.30;;;;;;5097169;28;20306;-79
2022/03/02 06:38:24;;;;;;;3.70;3.13;;;13.60;56.20;;;;;;5098443;28;20438;-78
2022/03/02 06:41:38;;;;;;;4.83;2.97;;;13.60;56.20;;;;;;5098466;28;20287;-79
2022/03/02 06:44:28;;;;;;;4.27;3.17;;;13.60;56.30;;;;;;5099598;28;20190;-79
2022/03/02 06:47:14;;;;;;;3.90;2.93;;;13.60;56.20;;;;;;5085873;28;20197;-79
2022/03/02 06:50:17;;;;;;;5.77;3.00;;;13.60;56.30;;;;;;5099300;28;20272;-79
2022/03/02 06:52:45;;;;;;;4.23;3.10;;;13.60;56.40;;;;;;5099977;28;20600;-78
2022/03/02 06:55:21;;;;;;;4.10;3.07;;;13.60;56.40;;;;;;5099392;28;20185;-79
2022/03/02 07:00:52;;;;;;;4.30;3.10;;;13.60;56.30;;;;;;5095794;28;20175;-79
2022/03/02 07:03:19;;;;;;;5.53;3.20;;;13.70;56.10;;;;;;5097174;28;20167;-79
2022/03/02 07:06:01;;;;;;;4.23;3.60;;;13.80;55.80;;;;;;5079132;28;20163;-79
2022/03/02 07:08:30;;;;;;;6.10;3.30;;;13.90;55.80;;;;;;5077409;28;20228;-79
2022/03/02 07:11:00;;;;;;;5.03;2.97;;;13.90;55.70;;;;;;5074433;28;20478;-79
2022/03/02 07:13:38;;;;;;;4.80;3.00;;;13.80;55.60;;;;;;5073518;28;20189;-79
2022/03/02 07:16:18;;;;;;;5.60;3.33;;;13.80;55.70;;;;;;5072882;28;20418;-79
2022/03/02 07:18:44;;;;;;;4.07;3.13;;;13.80;55.70;;;;;;5077672;28;20174;-80
2022/03/02 07:21:17;;;;;;;4.80;2.93;;;13.80;55.80;;;;;;5094467;28;20198;-79
2022/03/02 07:24:14;;;;;;;4.90;3.17;;;13.80;55.80;;;;;;5094449;28;20627;-80
2022/03/02 07:26:46;;;;;;;4.47;3.53;;;13.80;55.80;;;;;;5093311;28;20832;-80
2022/03/02 07:29:18;;;;;;;4.53;3.50;;;13.80;55.80;;;;;;5094183;28;20181;-79
2022/03/02 07:31:51;;;;;;;3.97;3.07;;;13.80;55.80;;;;;;5092633;28;20217;-80
2022/03/02 07:34:21;;;;;;;6.07;3.73;;;13.80;55.80;;;;;;5092391;28;20454;-79
2022/03/02 07:36:53;;;;;;;4.70;3.03;;;13.90;55.90;;;;;;5093743;28;20422;-79
2022/03/02 07:39:34;;;;;;;5.47;3.50;;;13.90;55.80;;;;;;5092148;28;20166;-79
2022/03/02 07:42:10;;;;;;;6.30;3.47;;;13.90;55.90;;;;;;5093521;28;20166;-80
2022/03/02 07:44:35;;;;;;;5.70;3.73;;;13.90;55.90;;;;;;5093761;28;20185;-79
2022/03/02 07:47:07;;;;;;;4.93;3.87;;;14.10;55.80;;;;;;5093746;28;20313;-79
2022/03/02 07:49:36;;;;;;;5.50;3.50;;;14.40;55.20;;;;;;5093419;28;20447;-79
2022/03/02 07:52:05;;;;;;;6.73;3.43;;;14.70;54.30;;;;;;5110014;28;20601;-80
2022/03/02 07:54:38;;;;;;;5.43;3.93;;;15.00;53.60;;;;;;5093801;28;20177;-79
2022/03/02 07:57:13;;;;;;;6.20;4.10;;;15.30;53.00;;;;;;5111652;28;20238;-80
2022/03/02 07:59:42;;;;;;;5.50;4.33;;;15.50;52.50;;;;;;5091670;28;20174;-79
2022/03/02 08:02:52;;;;;;;5.00;3.97;;;15.60;52.10;;;;;;5094021;28;20177;-79
2022/03/02 08:05:14;;;;;;;5.30;4.13;;;15.70;51.80;;;;;;5107306;28;20185;-79
2022/03/02 08:07:40;;;;;;;5.20;4.57;;;15.90;51.50;;;;;;5093463;28;20180;-79
2022/03/02 08:10:10;;;;;;;5.83;4.23;;;16.00;51.30;;;;;;5092563;28;20170;-79
2022/03/02 08:12:36;;;;;;;5.80;4.23;;;16.10;51.00;;;;;;5093467;28;20625;-79
2022/03/02 08:15:03;;;;;;;6.13;4.87;;;16.20;50.80;;;;;;5092155;28;20272;-80
2022/03/02 08:17:38;;;;;;;5.63;4.30;;;16.20;50.50;;;;;;5091964;28;20170;-80
2022/03/02 08:20:08;;;;;;;5.33;4.30;;;16.30;50.40;;;;;;5092866;28;20208;-79
2022/03/02 08:22:37;;;;;;;5.80;4.63;;;16.40;50.20;;;;;;5092398;28;20237;-79
2022/03/02 08:25:28;;;;;;;5.73;4.30;;;16.50;50.00;;;;;;5092745;28;20213;-80
2022/03/02 08:27:57;;;;;;;5.13;4.13;;;16.60;49.90;;;;;;5083100;28;20279;-79
2022/03/02 08:30:26;;;;;;;6.50;4.83;;;16.60;49.70;;;;;;5093154;28;20534;-80
2022/03/02 08:33:04;;;;;;;6.87;4.70;;;16.70;49.60;;;;;;5110138;28;20162;-80
2022/03/02 08:35:34;;;;;;;5.20;4.63;;;16.80;49.50;;;;;;5092159;28;20176;-79
2022/03/02 08:38:06;;;;;;;5.60;4.53;;;16.80;49.30;;;;;;5092455;28;20166;-80
2022/03/02 08:40:36;;;;;;;6.37;4.80;;;16.90;49.10;;;;;;5087989;28;20574;-79
2022/03/02 08:43:08;;;;;;;6.40;4.97;;;17.00;49.00;;;;;;5093817;28;20714;-79
2022/03/02 08:45:37;;;;;;;5.27;4.70;;;17.10;48.90;;;;;;5093203;28;20187;-79
2022/03/02 08:48:37;;;;;;;5.10;4.60;;;17.10;48.70;;;;;;5091486;28;20236;-79
2022/03/02 08:51:09;;;;;;;5.77;4.77;;;17.20;48.60;;;;;;5109789;28;20260;-79
2022/03/02 08:53:40;;;;;;;5.93;5.03;;;17.30;48.40;;;;;;5110585;28;20174;-79
2022/03/02 08:56:15;;;;;;;6.40;5.03;;;17.40;48.30;;;;;;5110025;28;20189;-78
2022/03/02 08:59:02;;;;;;;6.27;4.83;;;17.40;48.20;;;;;;5095859;28;20170;-79
2022/03/02 09:01:47;;;;;;;6.90;4.93;;;17.50;48.10;;;;;;5097254;28;20209;-79
2022/03/02 09:04:29;;;;;;;6.73;5.40;;;17.60;47.90;;;;;;5098840;28;20166;-79
2022/03/02 09:06:55;;;;;;;6.73;4.83;;;17.70;47.80;;;;;;5098254;28;20166;-79
2022/03/02 09:09:25;;;;;;;6.80;4.90;;;17.70;47.70;;;;;;5095677;28;20167;-79
2022/03/02 09:11:55;;;;;;;6.43;5.10;;;17.80;47.60;;;;;;5095748;28;20217;-79
2022/03/02 09:14:27;;;;;;;6.30;4.93;;;17.90;47.40;;;;;;5090165;28;20171;-79
2022/03/02 09:17:00;;;;;;;6.03;5.00;;;17.90;47.30;;;;;;5075653;28;20178;-79
2022/03/02 09:19:40;;;;;;;5.90;4.90;;;18.00;47.30;;;;;;5090984;28;20235;-79
2022/03/02 09:22:17;;;;;;;5.40;4.90;;;18.00;47.10;;;;;;5092427;28;20492;-79
2022/03/02 09:24:45;;;;;;;7.67;5.30;;;18.10;47.00;;;;;;5091613;28;20475;-79
2022/03/02 09:27:11;;;;;;;5.40;4.77;;;18.10;46.90;;;;;;5092069;28;20173;-79
2022/03/02 09:29:42;;;;;;;6.93;4.90;;;18.10;46.90;;;;;;5090199;28;20179;-79
2022/03/02 09:32:10;;;;;;;7.27;5.30;;;17.80;46.90;;;;;;5090130;28;20189;-79
2022/03/02 09:34:51;;;;;;;6.27;5.00;;;17.50;47.20;;;;;;5092339;28;20175;-79
2022/03/02 09:37:17;;;;;;;5.57;4.97;;;17.20;47.50;;;;;;5093148;28;20539;-79
2022/03/02 09:39:53;;;;;;;5.23;4.73;;;16.90;47.80;;;;;;5092199;28;20186;-79
2022/03/02 09:42:32;;;;;;;6.00;5.37;;;16.60;48.10;;;;;;5092008;28;20198;-79
2022/03/02 09:45:12;;;;;;;8.10;5.70;;;16.40;48.30;;;;;;5091901;28;20179;-79
2022/03/02 09:48:04;;;;;;;6.20;5.03;;;16.20;48.50;;;;;;5091748;28;20235;-79
2022/03/02 09:50:39;;;;;;;6.60;5.30;;;16.10;48.70;;;;;;5091969;28;20178;-79
2022/03/02 09:53:26;;;;;;;6.30;4.97;;;16.00;48.70;;;;;;5102120;28;20189;-78
2022/03/02 09:55:55;;;;;;;5.77;5.17;;;16.00;48.90;;;;;;5090886;28;20233;-79
2022/03/02 09:58:23;;;;;;;5.97;5.00;;;16.00;49.00;;;;;;5090597;28;20494;-79
2022/03/02 10:00:54;;;;;;;6.90;5.13;;;16.00;49.00;;;;;;5090991;28;20700;-79
2022/03/02 10:03:29;;;;;;;6.37;5.03;;;16.00;49.10;;;;;;5090294;28;20386;-79
2022/03/02 10:06:04;;;;;;;5.63;5.00;;;16.00;49.00;;;;;;5090755;28;20322;-79
2022/03/02 10:08:35;;;;;;;7.30;4.97;;;15.90;48.90;;;;;;5090478;28;20273;-79
2022/03/02 10:11:06;;;;;;;6.67;5.13;;;15.90;49.00;;;;;;5092015;28;20315;-79
2022/03/02 10:13:38;;;;;;;6.63;5.10;;;15.90;49.00;;;;;;5083744;28;20283;-79
2022/03/02 10:16:45;;;;;;;6.43;5.40;;;15.80;48.80;;;;;;5095971;28;20231;-79
2022/03/02 10:19:29;;;;;;;5.67;5.07;;;15.80;48.90;;;;;;5095720;28;20281;-79
2022/03/02 10:22:09;;;;;;;6.87;4.60;;;15.90;49.10;;;;;;5092382;28;20313;-79
2022/03/02 10:24:49;;;;;;;5.60;4.80;;;15.90;49.10;;;;;;5089997;28;20229;-79
2022/03/02 10:27:35;;;;;;;6.70;4.63;;;15.90;49.10;;;;;;5090140;28;20170;-79
2022/03/02 10:30:16;;;;;;;5.20;4.70;;;15.90;49.00;;;;;;5089635;28;20574;-79
2022/03/02 10:32:48;;;;;;;5.83;5.13;;;15.80;48.70;;;;;;5089668;28;20178;-80
2022/03/02 10:35:39;;;;;;;5.50;4.93;;;15.80;48.80;;;;;;5090836;28;20182;-80
2022/03/02 10:38:17;;;;;;;7.10;4.93;;;15.80;48.80;;;;;;5091388;28;20468;-79
2022/03/02 10:41:03;;;;;;;5.77;4.70;;;15.80;48.90;;;;;;5089958;28;20479;-80
2022/03/02 10:43:54;;;;;;;6.33;4.80;;;15.90;49.00;;;;;;5091326;28;20175;-79
2022/03/02 10:46:49;;;;;;;6.13;4.50;;;15.80;48.90;;;;;;4992622;28;20194;-79
2022/03/02 10:49:23;;;;;;;5.73;4.50;;;15.80;49.00;;;;;;5088773;28;20373;-79
2022/03/02 10:51:49;;;;;;;5.87;4.47;;;15.90;49.00;;;;;;5090462;28;20178;-79
2022/03/02 10:54:21;;;;;;;5.60;4.70;;;15.80;48.90;;;;;;5090976;28;20179;-79
2022/03/02 10:57:13;;;;;;;5.47;4.50;;;15.90;49.00;;;;;;5090067;28;20213;-79
2022/03/02 10:59:43;;;;;;;5.23;4.53;;;15.80;48.90;;;;;;5088662;28;20186;-79
2022/03/02 11:02:12;;;;;;;5.20;4.23;;;15.80;48.90;;;;;;5089550;28;20214;-79
2022/03/02 11:05:20;;;;;;;5.33;4.13;;;15.80;48.90;;;;;;5087944;28;20186;-79
2022/03/02 11:07:55;;;;;;;5.10;4.30;;;15.80;48.70;;;;;;5087728;28;20286;-79
2022/03/02 11:10:40;;;;;;;5.30;3.80;;;15.80;48.80;;;;;;5087695;28;20175;-79
2022/03/02 11:13:37;;;;;;;5.37;3.80;;;15.80;48.80;;;;;;5089216;28;20182;-79
2022/03/02 11:16:05;;;;;;;5.50;3.90;;;15.80;48.80;;;;;;5088799;28;20180;-79
2022/03/02 11:18:45;;;;;;;5.07;4.03;;;15.80;48.70;;;;;;5088790;28;20172;-79
2022/03/02 11:21:21;;;;;;;6.30;4.00;;;15.80;48.70;;;;;;5093428;28;20208;-79
2022/03/02 11:24:04;;;;;;;5.43;4.13;;;15.80;48.80;;;;;;5085740;28;20580;-79
2022/03/02 11:26:39;;;;;;;4.90;3.83;;;15.80;48.70;;;;;;5095614;28;20251;-79
2022/03/02 11:29:13;;;;;;;5.13;3.70;;;15.80;48.70;;;;;;5096720;28;20184;-80
2022/03/02 11:32:14;;;;;;;5.67;4.00;;;15.70;48.80;;;;;;5076391;28;20244;-79
2022/03/02 11:34:51;;;;;;;5.00;4.00;;;15.80;48.80;;;;;;5072706;28;20229;-79
2022/03/02 11:37:24;;;;;;;4.80;3.40;;;15.80;48.80;;;;;;5073590;28;20186;-79
2022/03/02 11:39:56;;;;;;;4.43;3.53;;;15.80;48.70;;;;;;5071163;28;20179;-80
2022/03/02 11:42:31;;;;;;;4.40;3.57;;;15.80;48.70;;;;;;5073505;28;20218;-78
2022/03/02 11:45:02;;;;;;;6.17;3.50;;;15.80;48.70;;;;;;5098468;28;20674;-80
2022/03/02 11:48:02;;;;;;;6.33;3.43;;;15.80;48.70;;;;;;5098496;28;20566;-79
2022/03/02 11:50:29;;;;;;;5.10;3.63;;;15.70;48.60;;;;;;5090463;28;20359;-79
2022/03/02 11:52:58;;;;;;;4.03;3.30;;;15.80;48.50;;;;;;5089606;28;20177;-80
2022/03/02 11:55:30;;;;;;;5.87;3.67;;;15.80;48.60;;;;;;5090938;28;20209;-79
2022/03/02 11:58:01;;;;;;;3.97;3.50;;;15.80;48.50;;;;;;5090732;28;20194;-79
2022/03/02 12:00:52;;;;;;;5.87;3.37;;;15.80;48.50;;;;;;5090938;28;20727;-79
2022/03/02 12:03:20;;;;;;;4.07;3.30;;;15.80;48.50;;;;;;5091314;28;20177;-79
2022/03/02 12:06:10;;;;;;;3.60;3.10;;;15.70;48.50;;;;;;5085774;28;20252;-79
2022/03/02 12:08:51;;;;;;;4.67;3.50;;;15.80;48.50;;;;;;5076364;28;20182;-79
2022/03/02 12:12:26;;;;;;;;;;;;;;;;;;;;;
2022/03/02 12:15:01;;;;;;;4.60;3.23;;;15.80;48.40;;;;;;4999731;28;20188;-79
2022/03/02 12:18:12;;;;;;;5.47;3.40;;;15.70;48.20;;;;;;4994735;28;20184;-78
2022/03/02 12:21:23;;;;;;;5.03;3.40;;;15.70;48.10;;;;;;5001712;28;20216;-78
2022/03/02 12:30:51;;;;;;;6.13;3.53;;;15.60;48.00;;;;;;4957727;28;20197;-80
2022/03/02 12:41:12;;;;;;;;;;;;;;;;;;;;;
2022/03/02 12:43:39;;;;;;;6.30;3.70;;;15.70;47.90;;;;;;5000457;28;20191;-79
2022/03/02 12:46:08;;;;;;;6.53;3.40;;;15.70;47.90;;;;;;5078799;28;20432;-78
2022/03/02 12:48:35;;;;;;;4.50;3.30;;;15.70;48.00;;;;;;5080114;28;20176;-78
2022/03/02 12:51:22;;;;;;;6.57;3.70;;;15.70;47.70;;;;;;5090749;28;20234;-79
2022/03/02 12:53:48;;;;;;;7.77;4.03;;;15.70;47.70;;;;;;5118055;28;20328;-78
2022/03/02 12:56:20;;;;;;;5.37;3.50;;;15.60;47.50;;;;;;5099650;28;20181;-79
2022/03/02 12:58:49;;;;;;;4.67;3.43;;;15.60;47.50;;;;;;5097487;28;20501;-79
2022/03/02 13:01:28;;;;;;;7.03;3.80;;;15.70;47.40;;;;;;5100368;28;20214;-79
2022/03/02 13:03:57;;;;;;;5.30;3.53;;;15.70;47.60;;;;;;5100079;28;20170;-79
2022/03/02 13:06:32;;;;;;;6.13;3.70;;;15.70;47.60;;;;;;5096742;28;20174;-79
2022/03/02 13:09:10;;;;;;;7.33;3.47;;;15.60;47.30;;;;;;5098094;28;20175;-79
2022/03/02 13:12:40;;;;;;;7.40;4.07;;;15.60;47.40;;;;;;5099515;28;20173;-79
2022/03/02 13:15:32;;;;;;;6.50;3.53;;;15.60;47.30;;;;;;5018569;28;20175;-78
2022/03/02 13:18:17;;;;;;;6.27;3.80;;;15.60;47.10;;;;;;4973855;28;20360;-79
2022/03/02 13:20:59;;;;;;;5.77;3.87;;;15.60;47.30;;;;;;5006734;28;20220;-79
2022/03/02 13:23:31;;;;;;;4.13;3.30;;;15.60;47.20;;;;;;4991481;28;20187;-79
2022/03/02 13:26:02;;;;;;;5.43;3.77;;;15.60;47.20;;;;;;5026263;28;20395;-79
2022/03/02 13:28:33;;;;;;;4.90;3.47;;;15.60;47.30;;;;;;5072653;28;20181;-79
2022/03/02 13:31:18;;;;;;;5.70;3.73;;;15.60;47.40;;;;;;5072900;28;20514;-79
2022/03/02 13:34:09;;;;;;;6.30;3.40;;;15.60;47.50;;;;;;5072613;28;20213;-79
2022/03/02 13:36:52;;;;;;;5.30;3.60;;;15.50;47.50;;;;;;5073363;28;20173;-79
2022/03/02 13:39:32;;;;;;;5.53;3.50;;;15.50;47.60;;;;;;5072621;28;20286;-78
2022/03/02 13:42:04;;;;;;;4.60;3.20;;;15.50;47.40;;;;;;5071155;28;20213;-78
2022/03/02 13:44:41;;;;;;;5.77;3.20;;;15.50;47.50;;;;;;5071351;28;20173;-78
2022/03/02 13:47:07;;;;;;;5.33;3.70;;;15.50;47.50;;;;;;5072356;28;20181;-79
2022/03/02 13:49:53;;;;;;;5.73;3.90;;;15.50;47.60;;;;;;5089741;28;20181;-78
2022/03/02 13:52:34;;;;;;;4.47;3.17;;;15.50;47.50;;;;;;5092649;28;20172;-79
2022/03/02 13:55:23;;;;;;;3.97;3.50;;;15.50;47.60;;;;;;5072288;28;20423;-79
2022/03/02 13:57:54;;;;;;;5.03;3.37;;;15.50;47.50;;;;;;5092386;28;20171;-79
2022/03/02 14:00:20;;;;;;;6.77;3.53;;;15.50;47.60;;;;;;5116592;28;20193;-79
2022/03/02 14:02:54;;;;;;;4.73;3.20;;;15.50;47.50;;;;;;5115255;28;20209;-78
2022/03/02 14:05:30;;;;;;;4.83;3.20;;;15.50;47.50;;;;;;5096102;28;20193;-79
2022/03/02 14:08:10;;;;;;;5.93;3.07;;;15.50;47.40;;;;;;5098608;28;20174;-79
2022/03/02 14:10:44;;;;;;;5.73;3.00;;;15.50;47.60;;;;;;5097692;28;20283;-79